LKMT Weather Reports


Display with metric or nautical units.
time (UTC)temp
F
wind
direction
speed
MPH
gust
MPH
rain 1hr
in
rain 24hr
in
rain mn
in
humidity
%
barometer
mb
20220813053224 63 20 7.0 0.0 0.00 0.00 0.00 100 1016.0
20220813051557 61 20 2.0 0.0 0.00 0.00 0.00 99
20220813050231 61 50 2.0 0.0 0.00 0.00 0.00 100 1016.0
20220813043224 59 20 3.0 0.0 0.00 0.00 0.00 100 1017.0
20220813041556 59 40 5.0 0.0 0.00 0.00 0.00 99
20220813040238 57 20 5.0 0.0 0.00 0.00 0.00 100 1017.0
20220813033220 57 50 2.0 0.0 0.00 0.00 0.00 100 1017.0
20220813031557 57 70 2.0 0.0 0.00 0.00 0.00 93
20220813030228 54 70 1.0 0.0 0.00 0.00 0.00 100 1016.0
20220813023213 55 0 2.0 0.0 0.00 0.00 0.00 100 1017.0
20220813021540 57 100 2.0 0.0 0.00 0.00 0.00 99
20220813020235 59 0 0.0 0.0 0.00 0.00 0.00 93 1017.0
20220813013221 57 0 1.0 0.0 0.00 0.00 0.00 100 1017.0
20220813011557 57 0 0.0 0.0 0.00 0.00 0.00 99
20220813010228 59 0 1.0 0.0 0.00 0.00 0.00 93 1017.0
20220813003221 59 130 3.0 0.0 0.00 0.00 0.00 93 1017.0
20220813001557 59 0 2.0 0.0 0.00 0.00 0.00 93
20220813000235 59 90 2.0 0.0 0.00 0.00 0.00 93 1018.0
20220812233221 61 100 1.0 0.0 0.00 0.00 0.00 82 1018.0
20220812231525 61 110 2.0 0.0 0.00 0.00 0.00 87
20220812230229 61 0 1.0 0.0 0.00 0.00 0.00 82 1018.0
20220812223221 61 40 3.0 0.0 0.00 0.00 0.00 82 1018.0
20220812221558 63 70 2.0 0.0 0.00 0.00 0.00 82
20220812220228 63 60 3.0 0.0 0.00 0.00 0.00 82 1018.0
20220812213222 63 40 3.0 0.0 0.00 0.00 0.00 82 1018.0
20220812211558 64 70 2.0 0.0 0.00 0.00 0.00 72
20220812210229 64 0 0.0 0.0 0.00 0.00 0.00 72 1018.0
20220812203221 66 60 3.0 0.0 0.00 0.00 0.00 68 1018.0
20220812201558 68 40 2.0 0.0 0.00 0.00 0.00 60
20220812200229 68 30 3.0 0.0 0.00 0.00 0.00 64 1018.0
20220812193221 66 40 6.0 0.0 0.00 0.00 0.00 63 1018.0
20220812191557 70 50 7.0 0.0 0.00 0.00 0.00 56
20220812190243 68 50 6.0 0.0 0.00 0.00 0.00 60 1018.0
20220812183230 70 50 5.0 0.0 0.00 0.00 0.00 56 1018.0
20220812181558 73 60 7.0 0.0 0.00 0.00 0.00 46
20220812180230 72 60 8.0 0.0 0.00 0.00 0.00 53 1018.0
20220812173229 73 60 9.0 0.0 0.00 0.00 0.00 49 1018.0
20220812171558 75 50 14.0 0.0 0.00 0.00 0.00 44
20220812170229 75 50 13.0 0.0 0.00 0.00 0.00 47 1018.0
20220812163229 77 50 12.0 0.0 0.00 0.00 0.00 44 1018.0
20220812161613 77 50 14.0 0.0 0.00 0.00 0.00 41
20220812160230 77 50 14.0 0.0 0.00 0.00 0.00 44 1018.0
20220812153229 77 60 14.0 0.0 0.00 0.00 0.00 41 1019.0
20220812151629 77 70 14.0 0.0 0.00 0.00 0.00 41
20220812150229 77 60 12.0 0.0 0.00 0.00 0.00 44 1019.0
20220812143243 77 60 12.0 0.0 0.00 0.00 0.00 44 1019.0
20220812141629 79 40 14.0 0.0 0.00 0.00 0.00 41
20220812140229 77 50 13.0 0.0 0.00 0.00 0.00 47 1019.0
20220812133236 75 50 12.0 24.0 0.00 0.00 0.00 50 1019.0
20220812131614 75 40 12.0 0.0 0.00 0.00 0.00 50
20220812130230 77 40 12.0 0.0 0.00 0.00 0.00 50 1019.0
20220812123237 77 70 9.0 0.0 0.00 0.00 0.00 44 1020.0
20220812121558 75 50 12.0 0.0 0.00 0.00 0.00 50
20220812120230 75 70 10.0 0.0 0.00 0.00 0.00 50 1020.0
20220812113230 75 70 10.0 0.0 0.00 0.00 0.00 50 1020.0
20220812111558 75 50 12.0 0.0 0.00 0.00 0.00 50
20220812110230 75 60 10.0 0.0 0.00 0.00 0.00 53 1020.0
20220812103230 73 70 10.0 0.0 0.00 0.00 0.00 53 1020.0
20220812101558 72 30 12.0 0.0 0.00 0.00 0.00 60
20220812100230 70 30 12.0 0.0 0.00 0.00 0.00 64 1021.0
20220812093230 70 30 13.0 0.0 0.00 0.00 0.00 68 1021.0
20220812091558 68 50 12.0 0.0 0.00 0.00 0.00 68
20220812090231 68 50 10.0 0.0 0.00 0.00 0.00 72 1021.0
20220812083230 66 50 8.0 0.0 0.00 0.00 0.00 72 1021.0
20220812081559 64 60 7.0 0.0 0.00 0.00 0.00 82
20220812080230 64 50 7.0 0.0 0.00 0.00 0.00 77 1021.0
20220812073231 61 60 7.0 0.0 0.00 0.00 0.00 87 1021.0
20220812071556 59 40 5.0 0.0 0.00 0.00 0.00 99
20220812070237 59 30 5.0 0.0 0.00 0.00 0.00 93 1022.0
20220812063231 57 40 6.0 0.0 0.00 0.00 0.00 100 1021.0
20220812061558 57 50 7.0 0.0 0.00 0.00 0.00 99
20220812060237 57 50 7.0 0.0 0.00 0.00 0.00 93 1021.0